AAL2008 KMIA-KEWR
Flight info
| Callsign | AAL2008 |
|---|---|
| Flight time | 2h 33m |
| Altitude | 34000 |
| Route | FOLZZ3 ALYRA GRUBR/N0456F350 Y299 SEELO GARIC Q129 AARNN QUART PHLBO4 |
| Aircraft | A320/M-SDE3FGHIRWY/LB1 |
Departure
| Time | 2026-04-22 12:42 |
|---|---|
| Airport | Miami International Airport (KMIA) |
Arrival
| Time | 2026-04-22 15:15 |
|---|---|
| Airport | Newark Liberty International Airport (KEWR) |
| Time | Latitude | Longitude | Altitude | Speed | Heading |
|---|---|---|---|---|---|
| 2026-04-22 12:20 | 25.79469 | -80.28061 | 15 ft | 0 kts | 12° |
| 2026-04-22 12:31 | 25.79453 | -80.28064 | 15 ft | 2 kts | 8° |
| 2026-04-22 12:31 | 25.79437 | -80.28066 | 16 ft | 2 kts | 359° |
| 2026-04-22 12:32 | 25.79421 | -80.28063 | 16 ft | 2 kts | 300° |
| 2026-04-22 12:32 | 25.79414 | -80.28032 | 16 ft | 1 kts | 265° |
| 2026-04-22 12:32 | 25.79414 | -80.28030 | 16 ft | 0 kts | 267° |
| 2026-04-22 12:34 | 25.79414 | -80.28036 | 16 ft | 2 kts | 267° |
| 2026-04-22 12:34 | 25.79411 | -80.28058 | 16 ft | 5 kts | 256° |
| 2026-04-22 12:35 | 25.79390 | -80.28106 | 15 ft | 7 kts | 244° |
| 2026-04-22 12:35 | 25.79372 | -80.28149 | 17 ft | 6 kts | 245° |
| 2026-04-22 12:35 | 25.79363 | -80.28204 | 15 ft | 8 kts | 266° |
| 2026-04-22 12:35 | 25.79350 | -80.28258 | 15 ft | 7 kts | 248° |
| 2026-04-22 12:36 | 25.79335 | -80.28316 | 15 ft | 11 kts | 263° |
| 2026-04-22 12:36 | 25.79329 | -80.28402 | 15 ft | 11 kts | 265° |
| 2026-04-22 12:36 | 25.79323 | -80.28478 | 15 ft | 9 kts | 264° |
| 2026-04-22 12:36 | 25.79318 | -80.28542 | 15 ft | 8 kts | 265° |
| 2026-04-22 12:37 | 25.79330 | -80.28628 | 15 ft | 15 kts | 297° |
| 2026-04-22 12:37 | 25.79383 | -80.28733 | 15 ft | 15 kts | 299° |
| 2026-04-22 12:37 | 25.79432 | -80.28826 | 15 ft | 13 kts | 299° |
| 2026-04-22 12:37 | 25.79474 | -80.28912 | 15 ft | 14 kts | 299° |
| 2026-04-22 12:38 | 25.79530 | -80.29020 | 15 ft | 19 kts | 300° |
| 2026-04-22 12:38 | 25.79603 | -80.29161 | 15 ft | 24 kts | 300° |
| 2026-04-22 12:38 | 25.79687 | -80.29327 | 15 ft | 24 kts | 298° |
| 2026-04-22 12:38 | 25.79766 | -80.29481 | 15 ft | 22 kts | 299° |
| 2026-04-22 12:39 | 25.79837 | -80.29621 | 15 ft | 20 kts | 300° |
| 2026-04-22 12:39 | 25.79945 | -80.29867 | 15 ft | 16 kts | 293° |
| 2026-04-22 12:39 | 25.79982 | -80.29981 | 15 ft | 15 kts | 289° |
| 2026-04-22 12:40 | 25.80007 | -80.30084 | 15 ft | 12 kts | 283° |
| 2026-04-22 12:40 | 25.80044 | -80.30130 | 14 ft | 7 kts | 347° |
| 2026-04-22 12:40 | 25.80073 | -80.30103 | 14 ft | 6 kts | 74° |
| 2026-04-22 12:40 | 25.80074 | -80.30088 | 14 ft | 0 kts | 89° |
| 2026-04-22 12:41 | 25.80076 | -80.30039 | 13 ft | 30 kts | 87° |
| 2026-04-22 12:41 | 25.80095 | -80.29535 | 14 ft | 98 kts | 87° |
| 2026-04-22 12:41 | 25.80137 | -80.28574 | 18 ft | 150 kts | 87° |
| 2026-04-22 12:41 | 25.80197 | -80.27304 | 339 ft | 166 kts | 86° |
| 2026-04-22 12:42 | 25.80236 | -80.26032 | 1078 ft | 166 kts | 96° |
| 2026-04-22 12:42 | 25.79824 | -80.24856 | 1845 ft | 165 kts | 114° |
| 2026-04-22 12:42 | 25.79275 | -80.23651 | 2189 ft | 185 kts | 113° |
| 2026-04-22 12:42 | 25.78678 | -80.22284 | 2454 ft | 209 kts | 113° |
| 2026-04-22 12:43 | 25.78017 | -80.20769 | 2807 ft | 233 kts | 114° |
| 2026-04-22 12:43 | 25.77281 | -80.19106 | 3461 ft | 244 kts | 114° |
| 2026-04-22 12:43 | 25.76516 | -80.17416 | 4284 ft | 247 kts | 116° |
| 2026-04-22 12:43 | 25.75698 | -80.15719 | 5096 ft | 250 kts | 117° |
| 2026-04-22 12:44 | 25.74882 | -80.14025 | 5909 ft | 253 kts | 112° |
| 2026-04-22 12:44 | 25.74452 | -80.12129 | 6625 ft | 257 kts | 92° |
| 2026-04-22 12:44 | 25.74682 | -80.10162 | 7341 ft | 262 kts | 72° |
| 2026-04-22 12:44 | 25.75567 | -80.08360 | 7950 ft | 272 kts | 51° |
| 2026-04-22 12:45 | 25.76827 | -80.06766 | 8655 ft | 277 kts | 49° |
| 2026-04-22 12:45 | 25.78114 | -80.05150 | 9353 ft | 282 kts | 48° |
| 2026-04-22 12:45 | 25.79423 | -80.03499 | 10047 ft | 287 kts | 48° |
| 2026-04-22 12:45 | 25.80778 | -80.01783 | 10370 ft | 307 kts | 47° |
| 2026-04-22 12:46 | 25.82241 | -79.99935 | 10526 ft | 330 kts | 47° |
| 2026-04-22 12:46 | 25.83800 | -79.97963 | 10808 ft | 347 kts | 48° |
| 2026-04-22 12:46 | 25.85404 | -79.95926 | 11348 ft | 354 kts | 47° |
| 2026-04-22 12:46 | 25.87037 | -79.93850 | 11932 ft | 359 kts | 48° |
| 2026-04-22 12:47 | 25.88695 | -79.91741 | 12527 ft | 365 kts | 47° |
| 2026-04-22 12:47 | 25.90376 | -79.89600 | 13105 ft | 370 kts | 48° |
| 2026-04-22 12:47 | 25.92077 | -79.87430 | 13697 ft | 375 kts | 48° |
| 2026-04-22 12:47 | 25.93806 | -79.85229 | 14279 ft | 379 kts | 48° |
| 2026-04-22 12:48 | 25.95551 | -79.83005 | 14774 ft | 384 kts | 47° |
| 2026-04-22 12:48 | 25.97313 | -79.80756 | 15324 ft | 388 kts | 47° |
| 2026-04-22 12:48 | 25.99097 | -79.78481 | 15866 ft | 391 kts | 48° |
| 2026-04-22 12:48 | 26.00892 | -79.76194 | 16435 ft | 394 kts | 47° |
| 2026-04-22 12:49 | 26.02701 | -79.73888 | 16978 ft | 397 kts | 47° |
| 2026-04-22 12:49 | 26.04526 | -79.71560 | 17460 ft | 402 kts | 48° |
| 2026-04-22 12:49 | 26.06342 | -79.69238 | 18004 ft | 405 kts | 47° |
| 2026-04-22 12:49 | 26.08197 | -79.66862 | 18493 ft | 409 kts | 47° |
| 2026-04-22 12:50 | 26.10068 | -79.64464 | 18998 ft | 412 kts | 47° |
| 2026-04-22 12:50 | 26.11803 | -79.61904 | 19445 ft | 416 kts | 53° |
| 2026-04-22 12:50 | 26.13481 | -79.59262 | 19911 ft | 420 kts | 53° |
| 2026-04-22 12:50 | 26.15168 | -79.56600 | 20390 ft | 422 kts | 52° |
| 2026-04-22 12:51 | 26.16863 | -79.53917 | 20864 ft | 425 kts | 52° |
| 2026-04-22 12:51 | 26.18573 | -79.51214 | 21326 ft | 429 kts | 52° |
| 2026-04-22 12:51 | 26.20299 | -79.48488 | 21753 ft | 432 kts | 52° |
| 2026-04-22 12:51 | 26.22037 | -79.45747 | 22182 ft | 435 kts | 52° |
| 2026-04-22 12:52 | 26.23790 | -79.42981 | 22604 ft | 439 kts | 52° |
| 2026-04-22 12:52 | 26.25557 | -79.40198 | 23032 ft | 441 kts | 52° |
| 2026-04-22 12:52 | 26.27354 | -79.37420 | 23441 ft | 443 kts | 48° |
| 2026-04-22 12:52 | 26.29444 | -79.34907 | 23824 ft | 441 kts | 38° |
| 2026-04-22 12:53 | 26.31855 | -79.32809 | 24139 ft | 439 kts | 29° |
| 2026-04-22 12:53 | 26.34438 | -79.30976 | 24457 ft | 441 kts | 28° |
| 2026-04-22 12:53 | 26.37035 | -79.29137 | 24778 ft | 444 kts | 28° |
| 2026-04-22 12:53 | 26.39646 | -79.27281 | 25083 ft | 446 kts | 28° |
| 2026-04-22 12:54 | 26.42270 | -79.25410 | 25387 ft | 449 kts | 28° |
| 2026-04-22 12:54 | 26.44912 | -79.23527 | 25686 ft | 451 kts | 28° |
| 2026-04-22 12:54 | 26.47563 | -79.21636 | 26005 ft | 453 kts | 28° |
| 2026-04-22 12:54 | 26.50222 | -79.19735 | 26304 ft | 455 kts | 28° |
| 2026-04-22 12:55 | 26.52897 | -79.17819 | 26589 ft | 458 kts | 28° |
| 2026-04-22 12:55 | 26.55548 | -79.15921 | 26865 ft | 460 kts | 28° |
| 2026-04-22 12:55 | 26.58247 | -79.13988 | 27147 ft | 462 kts | 28° |
| 2026-04-22 12:55 | 26.60959 | -79.12043 | 27434 ft | 464 kts | 28° |
| 2026-04-22 12:56 | 26.63723 | -79.10063 | 27693 ft | 466 kts | 27° |
| 2026-04-22 12:56 | 26.66462 | -79.08107 | 27960 ft | 468 kts | 27° |
| 2026-04-22 12:56 | 26.69215 | -79.06142 | 28219 ft | 471 kts | 27° |
| 2026-04-22 12:56 | 26.71978 | -79.04167 | 28478 ft | 472 kts | 27° |
| 2026-04-22 12:57 | 26.74717 | -79.02205 | 28737 ft | 474 kts | 28° |
| 2026-04-22 12:57 | 26.77498 | -79.00207 | 28981 ft | 476 kts | 28° |
| 2026-04-22 12:57 | 26.80287 | -78.98199 | 29215 ft | 478 kts | 28° |
| 2026-04-22 12:57 | 26.83089 | -78.96178 | 29436 ft | 480 kts | 28° |
| 2026-04-22 12:58 | 26.85900 | -78.94151 | 29664 ft | 482 kts | 28° |
| 2026-04-22 12:58 | 26.88721 | -78.92116 | 29863 ft | 483 kts | 28° |
| 2026-04-22 12:58 | 26.91554 | -78.90074 | 30095 ft | 484 kts | 27° |
| 2026-04-22 12:58 | 26.94384 | -78.88035 | 30390 ft | 484 kts | 27° |
| 2026-04-22 12:59 | 26.97213 | -78.85997 | 30649 ft | 483 kts | 27° |
| 2026-04-22 12:59 | 27.00040 | -78.83961 | 30906 ft | 482 kts | 27° |
| 2026-04-22 12:59 | 27.02861 | -78.81924 | 31193 ft | 482 kts | 27° |
| 2026-04-22 12:59 | 27.05639 | -78.79919 | 31459 ft | 481 kts | 27° |
| 2026-04-22 13:00 | 27.08446 | -78.77892 | 31729 ft | 480 kts | 27° |
| 2026-04-22 13:00 | 27.11246 | -78.75867 | 31996 ft | 479 kts | 27° |
| 2026-04-22 13:00 | 27.14046 | -78.73840 | 32267 ft | 478 kts | 27° |
| 2026-04-22 13:00 | 27.16834 | -78.71819 | 32533 ft | 477 kts | 27° |
| 2026-04-22 13:01 | 27.19618 | -78.69800 | 32799 ft | 476 kts | 27° |
| 2026-04-22 13:01 | 27.22397 | -78.67784 | 33061 ft | 475 kts | 27° |
| 2026-04-22 13:01 | 27.25183 | -78.65791 | 33326 ft | 472 kts | 23° |
| 2026-04-22 13:01 | 27.28102 | -78.64191 | 33587 ft | 463 kts | 14° |
| 2026-04-22 13:02 | 27.31144 | -78.63129 | 33837 ft | 454 kts | 5° |
| 2026-04-22 13:02 | 27.34234 | -78.62581 | 34093 ft | 447 kts | 359° |
| 2026-04-22 13:02 | 27.37318 | -78.62192 | 34341 ft | 446 kts | 359° |
| 2026-04-22 13:02 | 27.40398 | -78.61796 | 34567 ft | 445 kts | 359° |
| 2026-04-22 13:03 | 27.43472 | -78.61397 | 34792 ft | 444 kts | 359° |
| 2026-04-22 13:03 | 27.46541 | -78.60996 | 35000 ft | 444 kts | 359° |
| 2026-04-22 13:03 | 27.49604 | -78.60594 | 35195 ft | 443 kts | 359° |
| 2026-04-22 13:04 | 27.55742 | -78.59796 | 35281 ft | 444 kts | 359° |
| 2026-04-22 13:04 | 27.61878 | -78.58996 | 35286 ft | 444 kts | 359° |
| 2026-04-22 13:05 | 27.68004 | -78.58198 | 35285 ft | 443 kts | 359° |
| 2026-04-22 13:05 | 27.74137 | -78.57400 | 35288 ft | 443 kts | 359° |
| 2026-04-22 13:06 | 27.80263 | -78.56607 | 35282 ft | 443 kts | 359° |
| 2026-04-22 13:06 | 27.86348 | -78.55816 | 35280 ft | 443 kts | 359° |
| 2026-04-22 13:07 | 27.92469 | -78.55016 | 35298 ft | 443 kts | 359° |
| 2026-04-22 13:07 | 27.98590 | -78.54211 | 35292 ft | 443 kts | 359° |
| 2026-04-22 13:08 | 28.04714 | -78.53409 | 35287 ft | 443 kts | 359° |
| 2026-04-22 13:08 | 28.10836 | -78.52614 | 35285 ft | 443 kts | 359° |
| 2026-04-22 13:09 | 28.16963 | -78.51808 | 35282 ft | 443 kts | 359° |
| 2026-04-22 13:09 | 28.23086 | -78.51001 | 35302 ft | 443 kts | 359° |
| 2026-04-22 13:10 | 28.29207 | -78.50196 | 35298 ft | 443 kts | 359° |
| 2026-04-22 13:10 | 28.35320 | -78.49385 | 35293 ft | 442 kts | 359° |
| 2026-04-22 13:11 | 28.41401 | -78.48588 | 35296 ft | 442 kts | 359° |
| 2026-04-22 13:11 | 28.47519 | -78.47780 | 35317 ft | 442 kts | 359° |
| 2026-04-22 13:12 | 28.53631 | -78.46970 | 35312 ft | 442 kts | 359° |
| 2026-04-22 13:12 | 28.59742 | -78.46155 | 35308 ft | 442 kts | 359° |
| 2026-04-22 13:13 | 28.65848 | -78.45350 | 35303 ft | 442 kts | 359° |
| 2026-04-22 13:13 | 28.71955 | -78.44539 | 35300 ft | 442 kts | 359° |
| 2026-04-22 13:14 | 28.78070 | -78.43725 | 35322 ft | 442 kts | 359° |
| 2026-04-22 13:14 | 28.84175 | -78.42913 | 35316 ft | 441 kts | 359° |
| 2026-04-22 13:15 | 28.90231 | -78.42107 | 35312 ft | 441 kts | 359° |
| 2026-04-22 13:15 | 28.96328 | -78.41295 | 35306 ft | 441 kts | 359° |
| 2026-04-22 13:16 | 29.02424 | -78.40480 | 35309 ft | 441 kts | 359° |
| 2026-04-22 13:16 | 29.07493 | -78.39803 | 35333 ft | 441 kts | 359° |
| 2026-04-22 13:17 | 29.13591 | -78.38995 | 35321 ft | 441 kts | 359° |
| 2026-04-22 13:17 | 29.19688 | -78.38175 | 35313 ft | 441 kts | 359° |
| 2026-04-22 13:18 | 29.25790 | -78.37352 | 35311 ft | 441 kts | 359° |
| 2026-04-22 13:18 | 29.31891 | -78.36525 | 35329 ft | 441 kts | 359° |
| 2026-04-22 13:19 | 29.38001 | -78.35714 | 35321 ft | 442 kts | 359° |
| 2026-04-22 13:19 | 29.44072 | -78.34897 | 35312 ft | 442 kts | 359° |
| 2026-04-22 13:20 | 29.50107 | -78.34882 | 35303 ft | 426 kts | 343° |
| 2026-04-22 13:20 | 29.55779 | -78.36580 | 35295 ft | 420 kts | 338° |
| 2026-04-22 13:21 | 29.61406 | -78.38422 | 35313 ft | 421 kts | 338° |
| 2026-04-22 13:21 | 29.67045 | -78.40251 | 35298 ft | 421 kts | 338° |
| 2026-04-22 13:22 | 29.72691 | -78.42087 | 35291 ft | 422 kts | 338° |
| 2026-04-22 13:22 | 29.78348 | -78.43929 | 35291 ft | 423 kts | 338° |
| 2026-04-22 13:23 | 29.84011 | -78.45773 | 35294 ft | 423 kts | 338° |
| 2026-04-22 13:23 | 29.89672 | -78.47624 | 35327 ft | 423 kts | 338° |
| 2026-04-22 13:24 | 29.95302 | -78.49474 | 35317 ft | 423 kts | 338° |
| 2026-04-22 13:24 | 30.00971 | -78.51324 | 35313 ft | 423 kts | 338° |
| 2026-04-22 13:25 | 30.06642 | -78.53181 | 35309 ft | 423 kts | 338° |
| 2026-04-22 13:25 | 30.12313 | -78.55031 | 35306 ft | 425 kts | 340° |
| 2026-04-22 13:26 | 30.18306 | -78.55453 | 35301 ft | 443 kts | 360° |
| 2026-04-22 13:26 | 30.24441 | -78.54564 | 35301 ft | 444 kts | 0° |
| 2026-04-22 13:27 | 30.30585 | -78.53682 | 35304 ft | 445 kts | 360° |
| 2026-04-22 13:27 | 30.36734 | -78.52801 | 35307 ft | 445 kts | 360° |
| 2026-04-22 13:28 | 30.42841 | -78.51926 | 35313 ft | 445 kts | 0° |
| 2026-04-22 13:28 | 30.48995 | -78.50965 | 35331 ft | 446 kts | 1° |
| 2026-04-22 13:29 | 30.55144 | -78.49936 | 35328 ft | 446 kts | 1° |
| 2026-04-22 13:29 | 30.61292 | -78.48916 | 35326 ft | 446 kts | 1° |
| 2026-04-22 13:30 | 30.67443 | -78.47915 | 35323 ft | 446 kts | 1° |
| 2026-04-22 13:30 | 30.73587 | -78.46923 | 35348 ft | 445 kts | 1° |
| 2026-04-22 13:31 | 30.79733 | -78.45926 | 35332 ft | 446 kts | 1° |
| 2026-04-22 13:31 | 30.85881 | -78.44927 | 35318 ft | 446 kts | 1° |
| 2026-04-22 13:32 | 30.92033 | -78.43916 | 35314 ft | 447 kts | 1° |
| 2026-04-22 13:32 | 30.98198 | -78.42912 | 35317 ft | 447 kts | 1° |
| 2026-04-22 13:33 | 31.04321 | -78.41921 | 35337 ft | 447 kts | 1° |
| 2026-04-22 13:33 | 31.10488 | -78.40907 | 35332 ft | 447 kts | 1° |
| 2026-04-22 13:34 | 31.16649 | -78.39889 | 35334 ft | 447 kts | 1° |
| 2026-04-22 13:34 | 31.22796 | -78.38877 | 35327 ft | 446 kts | 1° |
| 2026-04-22 13:35 | 31.28949 | -78.37866 | 35345 ft | 446 kts | 1° |
| 2026-04-22 13:35 | 31.35082 | -78.36859 | 35339 ft | 445 kts | 1° |
| 2026-04-22 13:36 | 31.41173 | -78.35858 | 35336 ft | 444 kts | 1° |
| 2026-04-22 13:36 | 31.47293 | -78.34856 | 35331 ft | 444 kts | 1° |
| 2026-04-22 13:37 | 31.53408 | -78.33846 | 35327 ft | 443 kts | 1° |
| 2026-04-22 13:37 | 31.59524 | -78.32829 | 35343 ft | 443 kts | 1° |
| 2026-04-22 13:38 | 31.65634 | -78.31819 | 35337 ft | 443 kts | 1° |
| 2026-04-22 13:38 | 31.74757 | -78.30301 | 35329 ft | 444 kts | 1° |
| 2026-04-22 13:39 | 31.80875 | -78.29274 | 35344 ft | 444 kts | 1° |
| 2026-04-22 13:39 | 31.86993 | -78.28262 | 35334 ft | 444 kts | 1° |
| 2026-04-22 13:40 | 31.93116 | -78.27248 | 35321 ft | 444 kts | 1° |
| 2026-04-22 13:40 | 31.99239 | -78.26222 | 35322 ft | 444 kts | 1° |
| 2026-04-22 13:41 | 32.05367 | -78.25215 | 35314 ft | 444 kts | 0° |
| 2026-04-22 13:41 | 32.11495 | -78.24322 | 35346 ft | 444 kts | 360° |
| 2026-04-22 13:42 | 32.17637 | -78.23462 | 35332 ft | 444 kts | 360° |
| 2026-04-22 13:42 | 32.23769 | -78.22585 | 35327 ft | 444 kts | 0° |
| 2026-04-22 13:43 | 32.29903 | -78.21687 | 35320 ft | 444 kts | 0° |
| 2026-04-22 13:43 | 32.36001 | -78.20779 | 35338 ft | 444 kts | 0° |
| 2026-04-22 13:44 | 32.42135 | -78.19878 | 35327 ft | 444 kts | 0° |
| 2026-04-22 13:44 | 32.48256 | -78.18983 | 35318 ft | 443 kts | 0° |
| 2026-04-22 13:45 | 32.54386 | -78.18082 | 35316 ft | 443 kts | 0° |
| 2026-04-22 13:45 | 32.60511 | -78.17181 | 35332 ft | 444 kts | 0° |
| 2026-04-22 13:46 | 32.66638 | -78.16274 | 35328 ft | 444 kts | 0° |
| 2026-04-22 13:46 | 32.72768 | -78.15374 | 35322 ft | 444 kts | 0° |
| 2026-04-22 13:47 | 32.78861 | -78.14476 | 35321 ft | 444 kts | 0° |
| 2026-04-22 13:47 | 32.84993 | -78.13565 | 35320 ft | 444 kts | 0° |
| 2026-04-22 13:48 | 32.91122 | -78.12648 | 35317 ft | 444 kts | 0° |
| 2026-04-22 13:48 | 32.97255 | -78.11739 | 35314 ft | 443 kts | 0° |
| 2026-04-22 13:49 | 33.03378 | -78.10826 | 35312 ft | 444 kts | 0° |
| 2026-04-22 13:49 | 33.09503 | -78.09920 | 35312 ft | 444 kts | 0° |
| 2026-04-22 13:50 | 33.15589 | -78.09019 | 35332 ft | 443 kts | 360° |
| 2026-04-22 13:50 | 33.21711 | -78.08097 | 35326 ft | 443 kts | 360° |
| 2026-04-22 13:51 | 33.27836 | -78.07175 | 35322 ft | 443 kts | 360° |
| 2026-04-22 13:51 | 33.33954 | -78.06263 | 35319 ft | 443 kts | 360° |
| 2026-04-22 13:52 | 33.40075 | -78.05349 | 35335 ft | 443 kts | 360° |
| 2026-04-22 13:52 | 33.46188 | -78.04419 | 35327 ft | 442 kts | 360° |
| 2026-04-22 13:53 | 33.52256 | -78.03508 | 35324 ft | 442 kts | 360° |
| 2026-04-22 13:53 | 33.58357 | -78.02590 | 35321 ft | 442 kts | 360° |
| 2026-04-22 13:54 | 33.64460 | -78.01665 | 35338 ft | 442 kts | 359° |
| 2026-04-22 13:54 | 33.70565 | -78.00740 | 35315 ft | 442 kts | 359° |
| 2026-04-22 13:55 | 33.76670 | -77.99809 | 35312 ft | 442 kts | 359° |
| 2026-04-22 13:55 | 33.82785 | -77.98890 | 35309 ft | 442 kts | 359° |
| 2026-04-22 13:56 | 33.88893 | -77.98108 | 35320 ft | 437 kts | 354° |
| 2026-04-22 13:56 | 33.94969 | -77.97889 | 35308 ft | 437 kts | 354° |
| 2026-04-22 13:57 | 34.01012 | -77.97676 | 35297 ft | 437 kts | 354° |
| 2026-04-22 13:57 | 34.07094 | -77.97469 | 35295 ft | 437 kts | 354° |
| 2026-04-22 13:58 | 34.13187 | -77.97250 | 35291 ft | 438 kts | 354° |
| 2026-04-22 13:58 | 34.19272 | -77.97022 | 35313 ft | 437 kts | 354° |
| 2026-04-22 13:59 | 34.25361 | -77.96798 | 35311 ft | 437 kts | 354° |
| 2026-04-22 13:59 | 34.31442 | -77.96581 | 35307 ft | 437 kts | 354° |
| 2026-04-22 14:00 | 34.37531 | -77.96361 | 35309 ft | 438 kts | 354° |
| 2026-04-22 14:00 | 34.43614 | -77.96139 | 35328 ft | 437 kts | 354° |
| 2026-04-22 14:01 | 34.49691 | -77.95916 | 35319 ft | 436 kts | 354° |
| 2026-04-22 14:01 | 34.55755 | -77.95692 | 35319 ft | 436 kts | 354° |
| 2026-04-22 14:02 | 34.61814 | -77.95472 | 35314 ft | 435 kts | 354° |
| 2026-04-22 14:02 | 34.67868 | -77.95255 | 35331 ft | 435 kts | 355° |
| 2026-04-22 14:03 | 34.73889 | -77.95038 | 35323 ft | 435 kts | 355° |
| 2026-04-22 14:03 | 34.79945 | -77.94817 | 35316 ft | 435 kts | 355° |
| 2026-04-22 14:04 | 34.85994 | -77.94594 | 35311 ft | 435 kts | 355° |
| 2026-04-22 14:04 | 34.92043 | -77.94369 | 35332 ft | 434 kts | 355° |
| 2026-04-22 14:05 | 34.98039 | -77.94147 | 35320 ft | 433 kts | 355° |
| 2026-04-22 14:06 | 35.07072 | -77.93809 | 35317 ft | 432 kts | 355° |
| 2026-04-22 14:06 | 35.13081 | -77.93595 | 35307 ft | 432 kts | 355° |
| 2026-04-22 14:07 | 35.19082 | -77.93370 | 35281 ft | 431 kts | 356° |
| 2026-04-22 14:07 | 35.25071 | -77.93145 | 35263 ft | 430 kts | 356° |
| 2026-04-22 14:08 | 35.31056 | -77.92932 | 35258 ft | 429 kts | 354° |
| 2026-04-22 14:08 | 35.36936 | -77.93334 | 35254 ft | 425 kts | 351° |
| 2026-04-22 14:09 | 35.42834 | -77.93825 | 35269 ft | 425 kts | 350° |
| 2026-04-22 14:09 | 35.48735 | -77.94320 | 35265 ft | 425 kts | 350° |
| 2026-04-22 14:10 | 35.54638 | -77.94812 | 35262 ft | 425 kts | 351° |
| 2026-04-22 14:10 | 35.60545 | -77.95292 | 35261 ft | 425 kts | 351° |
| 2026-04-22 14:11 | 35.66452 | -77.95779 | 35263 ft | 425 kts | 352° |
| 2026-04-22 14:11 | 35.71362 | -77.96190 | 35258 ft | 426 kts | 351° |
| 2026-04-22 14:12 | 35.77271 | -77.96687 | 35255 ft | 426 kts | 351° |
| 2026-04-22 14:12 | 35.83182 | -77.97183 | 35255 ft | 426 kts | 351° |
| 2026-04-22 14:13 | 35.89093 | -77.97669 | 35258 ft | 426 kts | 351° |
| 2026-04-22 14:13 | 35.95001 | -77.98167 | 35269 ft | 425 kts | 351° |
| 2026-04-22 14:14 | 36.00910 | -77.98661 | 35264 ft | 425 kts | 352° |
| 2026-04-22 14:14 | 36.06811 | -77.99145 | 35259 ft | 425 kts | 352° |
| 2026-04-22 14:15 | 36.12663 | -77.99639 | 35255 ft | 424 kts | 351° |
| 2026-04-22 14:15 | 36.18554 | -78.00145 | 35275 ft | 423 kts | 352° |
| 2026-04-22 14:16 | 36.24430 | -78.00645 | 35255 ft | 423 kts | 352° |
| 2026-04-22 14:16 | 36.30294 | -78.01140 | 35245 ft | 422 kts | 352° |
| 2026-04-22 14:17 | 36.36154 | -78.01619 | 35235 ft | 423 kts | 354° |
| 2026-04-22 14:17 | 36.42044 | -78.00703 | 35247 ft | 431 kts | 7° |
| 2026-04-22 14:18 | 36.47907 | -77.99169 | 35232 ft | 430 kts | 7° |
| 2026-04-22 14:18 | 36.53762 | -77.97637 | 35221 ft | 430 kts | 7° |
| 2026-04-22 14:19 | 36.59613 | -77.96100 | 35261 ft | 429 kts | 7° |
| 2026-04-22 14:19 | 36.65422 | -77.94571 | 35289 ft | 429 kts | 7° |
| 2026-04-22 14:20 | 36.74179 | -77.92266 | 35271 ft | 428 kts | 7° |
| 2026-04-22 14:20 | 36.80013 | -77.90735 | 35255 ft | 428 kts | 7° |
| 2026-04-22 14:21 | 36.88753 | -77.88434 | 35195 ft | 428 kts | 7° |
| 2026-04-22 14:22 | 36.97485 | -77.86130 | 35180 ft | 427 kts | 7° |
| 2026-04-22 14:23 | 37.06219 | -77.83810 | 35177 ft | 428 kts | 7° |
| 2026-04-22 14:23 | 37.12048 | -77.82258 | 35193 ft | 427 kts | 7° |
| 2026-04-22 14:24 | 37.17863 | -77.80711 | 35199 ft | 427 kts | 7° |
| 2026-04-22 14:24 | 37.23667 | -77.79165 | 35197 ft | 426 kts | 7° |
| 2026-04-22 14:25 | 37.29430 | -77.77629 | 35180 ft | 426 kts | 7° |
| 2026-04-22 14:25 | 37.35230 | -77.76084 | 35190 ft | 426 kts | 7° |
| 2026-04-22 14:26 | 37.41028 | -77.74529 | 35186 ft | 426 kts | 7° |
| 2026-04-22 14:26 | 37.46830 | -77.72972 | 35182 ft | 425 kts | 7° |
| 2026-04-22 14:27 | 37.52513 | -77.71022 | 35178 ft | 432 kts | 19° |
| 2026-04-22 14:27 | 37.57750 | -77.67150 | 35190 ft | 438 kts | 27° |
| 2026-04-22 14:28 | 37.62887 | -77.62996 | 35183 ft | 438 kts | 27° |
| 2026-04-22 14:28 | 37.68020 | -77.58848 | 35184 ft | 438 kts | 27° |
| 2026-04-22 14:29 | 37.73154 | -77.54685 | 35168 ft | 439 kts | 27° |
| 2026-04-22 14:29 | 37.78294 | -77.50516 | 35159 ft | 439 kts | 27° |
| 2026-04-22 14:30 | 37.83435 | -77.46335 | 35153 ft | 439 kts | 27° |
| 2026-04-22 14:30 | 37.88577 | -77.42156 | 35154 ft | 440 kts | 27° |
| 2026-04-22 14:31 | 37.93720 | -77.37959 | 35154 ft | 440 kts | 27° |
| 2026-04-22 14:31 | 37.98829 | -77.33785 | 35142 ft | 440 kts | 27° |
| 2026-04-22 14:32 | 38.03965 | -77.29579 | 35140 ft | 439 kts | 27° |
| 2026-04-22 14:32 | 38.09096 | -77.25371 | 35133 ft | 439 kts | 27° |
| 2026-04-22 14:33 | 38.14226 | -77.21161 | 35128 ft | 439 kts | 27° |
| 2026-04-22 14:33 | 38.19361 | -77.16945 | 35135 ft | 440 kts | 27° |
| 2026-04-22 14:34 | 38.24495 | -77.12722 | 35131 ft | 440 kts | 27° |
| 2026-04-22 14:34 | 38.29628 | -77.08471 | 35132 ft | 440 kts | 29° |
| 2026-04-22 14:35 | 38.34605 | -77.03889 | 35127 ft | 442 kts | 32° |
| 2026-04-22 14:35 | 38.39466 | -76.99062 | 35126 ft | 443 kts | 33° |
| 2026-04-22 14:36 | 38.44298 | -76.94293 | 35149 ft | 441 kts | 31° |
| 2026-04-22 14:36 | 38.49177 | -76.89564 | 35142 ft | 440 kts | 31° |
| 2026-04-22 14:37 | 38.54063 | -76.84857 | 35132 ft | 440 kts | 32° |
| 2026-04-22 14:37 | 38.58933 | -76.80147 | 35119 ft | 440 kts | 32° |
| 2026-04-22 14:38 | 38.63820 | -76.75406 | 35139 ft | 440 kts | 31° |
| 2026-04-22 14:38 | 38.68688 | -76.70677 | 35134 ft | 439 kts | 31° |
| 2026-04-22 14:39 | 38.73555 | -76.65935 | 35130 ft | 439 kts | 31° |
| 2026-04-22 14:39 | 38.78418 | -76.61203 | 35124 ft | 439 kts | 31° |
| 2026-04-22 14:40 | 38.85703 | -76.54089 | 35135 ft | 439 kts | 31° |
| 2026-04-22 14:40 | 38.90562 | -76.49321 | 34861 ft | 440 kts | 31° |
| 2026-04-22 14:41 | 38.93001 | -76.46932 | 34620 ft | 441 kts | 31° |
| 2026-04-22 14:41 | 38.95446 | -76.44533 | 34385 ft | 443 kts | 31° |
| 2026-04-22 14:41 | 38.97892 | -76.42125 | 34141 ft | 444 kts | 31° |
| 2026-04-22 14:41 | 39.00340 | -76.39709 | 33867 ft | 444 kts | 31° |
| 2026-04-22 14:42 | 39.02796 | -76.37277 | 33623 ft | 446 kts | 32° |
| 2026-04-22 14:42 | 39.05206 | -76.34734 | 33345 ft | 450 kts | 34° |
| 2026-04-22 14:42 | 39.07540 | -76.32099 | 32333 ft | 457 kts | 35° |
| 2026-04-22 14:42 | 39.09886 | -76.29311 | 31574 ft | 457 kts | 36° |
| 2026-04-22 14:43 | 39.12182 | -76.26513 | 30999 ft | 452 kts | 37° |
| 2026-04-22 14:43 | 39.14459 | -76.23742 | 30376 ft | 449 kts | 36° |
| 2026-04-22 14:43 | 39.16737 | -76.21009 | 29708 ft | 445 kts | 36° |
| 2026-04-22 14:43 | 39.19009 | -76.18324 | 29106 ft | 441 kts | 35° |
| 2026-04-22 14:44 | 39.21271 | -76.15677 | 28515 ft | 437 kts | 35° |
| 2026-04-22 14:44 | 39.23517 | -76.13059 | 27932 ft | 433 kts | 35° |
| 2026-04-22 14:44 | 39.25748 | -76.10462 | 27338 ft | 430 kts | 35° |
| 2026-04-22 14:44 | 39.27956 | -76.07883 | 26849 ft | 426 kts | 36° |
| 2026-04-22 14:45 | 39.30150 | -76.05319 | 26528 ft | 425 kts | 36° |
| 2026-04-22 14:45 | 39.32339 | -76.02754 | 26157 ft | 423 kts | 36° |
| 2026-04-22 14:45 | 39.34485 | -76.00232 | 25792 ft | 422 kts | 36° |
| 2026-04-22 14:45 | 39.36649 | -75.97686 | 25429 ft | 420 kts | 36° |
| 2026-04-22 14:46 | 39.38802 | -75.95151 | 25068 ft | 418 kts | 36° |
| 2026-04-22 14:46 | 39.40946 | -75.92622 | 24718 ft | 416 kts | 36° |
| 2026-04-22 14:46 | 39.43079 | -75.90104 | 24348 ft | 414 kts | 36° |
| 2026-04-22 14:46 | 39.45196 | -75.87596 | 23998 ft | 412 kts | 36° |
| 2026-04-22 14:47 | 39.47298 | -75.85099 | 23631 ft | 410 kts | 37° |
| 2026-04-22 14:47 | 39.49392 | -75.82607 | 23250 ft | 408 kts | 37° |
| 2026-04-22 14:47 | 39.51474 | -75.80132 | 22913 ft | 406 kts | 37° |
| 2026-04-22 14:47 | 39.53555 | -75.77665 | 22559 ft | 404 kts | 36° |
| 2026-04-22 14:48 | 39.55628 | -75.75210 | 22202 ft | 403 kts | 37° |
| 2026-04-22 14:48 | 39.57690 | -75.72767 | 21858 ft | 401 kts | 37° |
| 2026-04-22 14:48 | 39.59742 | -75.70334 | 21522 ft | 399 kts | 37° |
| 2026-04-22 14:48 | 39.61785 | -75.67907 | 21170 ft | 397 kts | 37° |
| 2026-04-22 14:49 | 39.63816 | -75.65488 | 20822 ft | 395 kts | 37° |
| 2026-04-22 14:49 | 39.65838 | -75.63075 | 20485 ft | 394 kts | 37° |
| 2026-04-22 14:49 | 39.67848 | -75.60674 | 20145 ft | 392 kts | 37° |
| 2026-04-22 14:49 | 39.69823 | -75.58312 | 19751 ft | 390 kts | 37° |
| 2026-04-22 14:50 | 39.71813 | -75.55920 | 19358 ft | 388 kts | 37° |
| 2026-04-22 14:50 | 39.73787 | -75.53537 | 18964 ft | 386 kts | 37° |
| 2026-04-22 14:50 | 39.75748 | -75.51169 | 18573 ft | 384 kts | 37° |
| 2026-04-22 14:50 | 39.77704 | -75.48813 | 18144 ft | 382 kts | 37° |
| 2026-04-22 14:51 | 39.79660 | -75.46458 | 17563 ft | 383 kts | 37° |
| 2026-04-22 14:51 | 39.81600 | -75.44112 | 17191 ft | 378 kts | 38° |
| 2026-04-22 14:51 | 39.83515 | -75.41796 | 16816 ft | 375 kts | 37° |
| 2026-04-22 14:51 | 39.85427 | -75.39485 | 16429 ft | 374 kts | 37° |
| 2026-04-22 14:52 | 39.87326 | -75.37181 | 16048 ft | 372 kts | 38° |
| 2026-04-22 14:52 | 39.89208 | -75.34892 | 15674 ft | 370 kts | 38° |
| 2026-04-22 14:52 | 39.91084 | -75.32608 | 15294 ft | 368 kts | 38° |
| 2026-04-22 14:52 | 39.92954 | -75.30336 | 14928 ft | 366 kts | 38° |
| 2026-04-22 14:53 | 39.94808 | -75.28087 | 14564 ft | 364 kts | 38° |
| 2026-04-22 14:53 | 39.96660 | -75.25842 | 14203 ft | 362 kts | 38° |
| 2026-04-22 14:53 | 39.98478 | -75.23637 | 13810 ft | 360 kts | 38° |
| 2026-04-22 14:53 | 40.00329 | -75.21389 | 13435 ft | 358 kts | 38° |
| 2026-04-22 14:54 | 40.02125 | -75.19203 | 13065 ft | 356 kts | 38° |
| 2026-04-22 14:54 | 40.03931 | -75.17001 | 12710 ft | 355 kts | 38° |
| 2026-04-22 14:54 | 40.05729 | -75.14809 | 12347 ft | 353 kts | 38° |
| 2026-04-22 14:54 | 40.07498 | -75.12646 | 12146 ft | 340 kts | 38° |
| 2026-04-22 14:55 | 40.09163 | -75.10598 | 11873 ft | 321 kts | 38° |
| 2026-04-22 14:55 | 40.10773 | -75.08621 | 11345 ft | 314 kts | 38° |
| 2026-04-22 14:55 | 40.12359 | -75.06680 | 11015 ft | 310 kts | 38° |
| 2026-04-22 14:55 | 40.13929 | -75.04761 | 10733 ft | 309 kts | 38° |
| 2026-04-22 14:56 | 40.15495 | -75.02849 | 10466 ft | 308 kts | 38° |
| 2026-04-22 14:56 | 40.17055 | -75.00938 | 10173 ft | 306 kts | 39° |
| 2026-04-22 14:56 | 40.18604 | -74.99033 | 9863 ft | 304 kts | 39° |
| 2026-04-22 14:56 | 40.20145 | -74.97140 | 9574 ft | 303 kts | 39° |
| 2026-04-22 14:57 | 40.21676 | -74.95259 | 9298 ft | 301 kts | 39° |
| 2026-04-22 14:57 | 40.23197 | -74.93389 | 9009 ft | 299 kts | 39° |
| 2026-04-22 14:57 | 40.24712 | -74.91526 | 8717 ft | 298 kts | 39° |
| 2026-04-22 14:57 | 40.26180 | -74.89668 | 8461 ft | 297 kts | 41° |
| 2026-04-22 14:58 | 40.27612 | -74.87714 | 8175 ft | 296 kts | 43° |
| 2026-04-22 14:58 | 40.29004 | -74.85743 | 7786 ft | 294 kts | 44° |
| 2026-04-22 14:58 | 40.30375 | -74.83779 | 7397 ft | 292 kts | 44° |
| 2026-04-22 14:58 | 40.31742 | -74.81822 | 7005 ft | 289 kts | 44° |
| 2026-04-22 14:59 | 40.33099 | -74.79891 | 6612 ft | 287 kts | 44° |
| 2026-04-22 14:59 | 40.34451 | -74.77974 | 6216 ft | 285 kts | 44° |
| 2026-04-22 14:59 | 40.35793 | -74.76083 | 5962 ft | 281 kts | 44° |
| 2026-04-22 14:59 | 40.37131 | -74.74201 | 5960 ft | 282 kts | 44° |
| 2026-04-22 15:00 | 40.38468 | -74.72313 | 5960 ft | 283 kts | 44° |
| 2026-04-22 15:00 | 40.39807 | -74.70420 | 5963 ft | 283 kts | 44° |
| 2026-04-22 15:00 | 40.41184 | -74.68569 | 5959 ft | 281 kts | 37° |
| 2026-04-22 15:00 | 40.42797 | -74.67170 | 5958 ft | 277 kts | 22° |
| 2026-04-22 15:01 | 40.44600 | -74.66340 | 5964 ft | 273 kts | 8° |
| 2026-04-22 15:01 | 40.46458 | -74.65854 | 5964 ft | 272 kts | 7° |
| 2026-04-22 15:01 | 40.48317 | -74.65364 | 5964 ft | 272 kts | 7° |
| 2026-04-22 15:01 | 40.50177 | -74.64867 | 5964 ft | 274 kts | 8° |
| 2026-04-22 15:02 | 40.52044 | -74.64364 | 5966 ft | 274 kts | 8° |
| 2026-04-22 15:02 | 40.53878 | -74.63869 | 5966 ft | 273 kts | 8° |
| 2026-04-22 15:02 | 40.55763 | -74.63361 | 5963 ft | 272 kts | 8° |
| 2026-04-22 15:02 | 40.57617 | -74.62862 | 5962 ft | 272 kts | 8° |
| 2026-04-22 15:03 | 40.59452 | -74.62370 | 5964 ft | 273 kts | 8° |
| 2026-04-22 15:03 | 40.61310 | -74.61874 | 5965 ft | 273 kts | 8° |
| 2026-04-22 15:03 | 40.63171 | -74.61374 | 5964 ft | 273 kts | 8° |
| 2026-04-22 15:03 | 40.65031 | -74.60872 | 5964 ft | 273 kts | 8° |
| 2026-04-22 15:04 | 40.66884 | -74.60318 | 5960 ft | 274 kts | 16° |
| 2026-04-22 15:04 | 40.68505 | -74.58971 | 5965 ft | 281 kts | 42° |
| 2026-04-22 15:04 | 40.69818 | -74.57060 | 5965 ft | 282 kts | 47° |
| 2026-04-22 15:04 | 40.70658 | -74.55751 | 5967 ft | 282 kts | 47° |
| 2026-04-22 15:05 | 40.71917 | -74.53763 | 5968 ft | 282 kts | 48° |
| 2026-04-22 15:05 | 40.73174 | -74.51779 | 5973 ft | 282 kts | 48° |
| 2026-04-22 15:05 | 40.74434 | -74.49812 | 5973 ft | 280 kts | 47° |
| 2026-04-22 15:05 | 40.75693 | -74.47851 | 5974 ft | 280 kts | 47° |
| 2026-04-22 15:06 | 40.76950 | -74.45896 | 5949 ft | 279 kts | 47° |
| 2026-04-22 15:06 | 40.78201 | -74.43947 | 5588 ft | 277 kts | 47° |
| 2026-04-22 15:06 | 40.79441 | -74.42008 | 5159 ft | 276 kts | 47° |
| 2026-04-22 15:06 | 40.80664 | -74.40069 | 4767 ft | 274 kts | 47° |
| 2026-04-22 15:07 | 40.81878 | -74.38143 | 4355 ft | 272 kts | 47° |
| 2026-04-22 15:07 | 40.83091 | -74.36233 | 4020 ft | 270 kts | 48° |
| 2026-04-22 15:07 | 40.84312 | -74.34331 | 3999 ft | 274 kts | 48° |
| 2026-04-22 15:07 | 40.85560 | -74.32415 | 3999 ft | 272 kts | 47° |
| 2026-04-22 15:08 | 40.86764 | -74.30569 | 3950 ft | 260 kts | 50° |
| 2026-04-22 15:08 | 40.87579 | -74.28495 | 3787 ft | 254 kts | 79° |
| 2026-04-22 15:08 | 40.87636 | -74.26185 | 3639 ft | 253 kts | 95° |
| 2026-04-22 15:08 | 40.87488 | -74.23873 | 3482 ft | 251 kts | 97° |
| 2026-04-22 15:09 | 40.87331 | -74.21605 | 3328 ft | 243 kts | 97° |
| 2026-04-22 15:09 | 40.87179 | -74.19426 | 3168 ft | 234 kts | 97° |
| 2026-04-22 15:09 | 40.87040 | -74.17314 | 3056 ft | 229 kts | 97° |
| 2026-04-22 15:09 | 40.86913 | -74.15261 | 2989 ft | 222 kts | 98° |
| 2026-04-22 15:10 | 40.86722 | -74.13277 | 2988 ft | 212 kts | 114° |
| 2026-04-22 15:10 | 40.85951 | -74.11781 | 3039 ft | 190 kts | 141° |
| 2026-04-22 15:10 | 40.84960 | -74.10662 | 2925 ft | 184 kts | 146° |
| 2026-04-22 15:10 | 40.83980 | -74.09635 | 2759 ft | 175 kts | 147° |
| 2026-04-22 15:11 | 40.82948 | -74.08945 | 2617 ft | 160 kts | 167° |
| 2026-04-22 15:11 | 40.81878 | -74.08779 | 2513 ft | 153 kts | 185° |
| 2026-04-22 15:11 | 40.80853 | -74.09085 | 2447 ft | 152 kts | 202° |
| 2026-04-22 15:11 | 40.79901 | -74.09685 | 2297 ft | 151 kts | 205° |
| 2026-04-22 15:12 | 40.78949 | -74.10293 | 2112 ft | 153 kts | 204° |
| 2026-04-22 15:12 | 40.77999 | -74.10900 | 1899 ft | 149 kts | 204° |
| 2026-04-22 15:12 | 40.77122 | -74.11460 | 1718 ft | 138 kts | 204° |
| 2026-04-22 15:12 | 40.76254 | -74.12014 | 1555 ft | 134 kts | 203° |
| 2026-04-22 15:13 | 40.75423 | -74.12543 | 1360 ft | 131 kts | 203° |
| 2026-04-22 15:13 | 40.74601 | -74.13067 | 1162 ft | 131 kts | 202° |
| 2026-04-22 15:13 | 40.73777 | -74.13594 | 975 ft | 132 kts | 203° |
| 2026-04-22 15:13 | 40.72942 | -74.14126 | 766 ft | 131 kts | 202° |
| 2026-04-22 15:14 | 40.72105 | -74.14659 | 568 ft | 135 kts | 204° |
| 2026-04-22 15:14 | 40.71277 | -74.15184 | 362 ft | 132 kts | 201° |
| 2026-04-22 15:14 | 40.70442 | -74.15712 | 185 ft | 133 kts | 202° |
| 2026-04-22 15:14 | 40.69622 | -74.16242 | 47 ft | 130 kts | 204° |
| 2026-04-22 15:15 | 40.68894 | -74.16698 | 23 ft | 96 kts | 206° |
| 2026-04-22 15:15 | 40.68460 | -74.16980 | 22 ft | 43 kts | 206° |
| 2026-04-22 15:15 | 40.68271 | -74.17167 | 22 ft | 23 kts | 230° |
| 2026-04-22 15:15 | 40.68191 | -74.17316 | 22 ft | 20 kts | 234° |
| 2026-04-22 15:16 | 40.68159 | -74.17377 | 21 ft | 6 kts | 234° |
| 2026-04-22 15:16 | 40.68121 | -74.17415 | 21 ft | 7 kts | 204° |
| 2026-04-22 15:16 | 40.68059 | -74.17453 | 22 ft | 13 kts | 206° |
| 2026-04-22 15:16 | 40.67974 | -74.17508 | 22 ft | 10 kts | 215° |
| 2026-04-22 15:17 | 40.67970 | -74.17595 | 20 ft | 10 kts | 295° |
| 2026-04-22 15:17 | 40.67999 | -74.17676 | 21 ft | 9 kts | 295° |
| 2026-04-22 15:17 | 40.68022 | -74.17738 | 21 ft | 7 kts | 295° |
| 2026-04-22 15:17 | 40.68049 | -74.17814 | 22 ft | 10 kts | 296° |
| 2026-04-22 15:18 | 40.68080 | -74.17887 | 22 ft | 9 kts | 310° |
| 2026-04-22 15:18 | 40.68122 | -74.17938 | 22 ft | 8 kts | 318° |
| 2026-04-22 15:18 | 40.68157 | -74.17988 | 22 ft | 9 kts | 302° |
| 2026-04-22 15:18 | 40.68172 | -74.18077 | 22 ft | 9 kts | 289° |
| 2026-04-22 15:19 | 40.68219 | -74.18120 | 22 ft | 8 kts | 330° |
| 2026-04-22 15:19 | 40.68233 | -74.18185 | 22 ft | 9 kts | 268° |
| 2026-04-22 15:19 | 40.68236 | -74.18285 | 22 ft | 11 kts | 274° |
| 2026-04-22 15:19 | 40.68242 | -74.18385 | 22 ft | 12 kts | 275° |
| 2026-04-22 15:20 | 40.68249 | -74.18497 | 22 ft | 8 kts | 275° |
| 2026-04-22 15:20 | 40.68246 | -74.18561 | 22 ft | 6 kts | 252° |
| 2026-04-22 15:20 | 40.68232 | -74.18606 | 22 ft | 5 kts | 248° |
| 2026-04-22 15:20 | 40.68237 | -74.18638 | 22 ft | 3 kts | 312° |
| 2026-04-22 15:21 | 40.68253 | -74.18648 | 22 ft | 2 kts | 338° |
| 2026-04-22 15:21 | 40.68267 | -74.18655 | 22 ft | 2 kts | 339° |
| 2026-04-22 15:21 | 40.68277 | -74.18660 | 22 ft | 2 kts | 339° |
| 2026-04-22 15:21 | 40.68294 | -74.18669 | 23 ft | 2 kts | 338° |
| 2026-04-22 15:22 | 40.68295 | -74.18669 | 23 ft | 0 kts | 338° |